sensor_id;sensor_type;location;lat;lon;timestamp;P1;durP1;ratioP1;P2;durP2;ratioP2
30613;SDS011;17381;51.690;5.270;2023-02-19T00:02:15;23.42;;;10.70;;
30613;SDS011;17381;51.690;5.270;2023-02-19T00:05:13;21.55;;;9.15;;
30613;SDS011;17381;51.690;5.270;2023-02-19T00:08:31;18.65;;;7.97;;
30613;SDS011;17381;51.690;5.270;2023-02-19T00:19:07;21.90;;;8.10;;
30613;SDS011;17381;51.690;5.270;2023-02-19T00:28:04;27.55;;;10.88;;
30613;SDS011;17381;51.690;5.270;2023-02-19T00:31:37;24.10;;;10.95;;
30613;SDS011;17381;51.690;5.270;2023-02-19T00:34:14;20.27;;;9.00;;
30613;SDS011;17381;51.690;5.270;2023-02-19T00:37:14;21.73;;;9.00;;
30613;SDS011;17381;51.690;5.270;2023-02-19T00:40:28;19.67;;;8.63;;
30613;SDS011;17381;51.690;5.270;2023-02-19T00:45:56;25.55;;;12.27;;
30613;SDS011;17381;51.690;5.270;2023-02-19T00:48:36;25.63;;;9.55;;
30613;SDS011;17381;51.690;5.270;2023-02-19T00:54:33;20.60;;;6.88;;
30613;SDS011;17381;51.690;5.270;2023-02-19T01:00:20;17.65;;;7.30;;
30613;SDS011;17381;51.690;5.270;2023-02-19T01:06:30;21.48;;;5.63;;
30613;SDS011;17381;51.690;5.270;2023-02-19T01:09:19;16.58;;;6.10;;
30613;SDS011;17381;51.690;5.270;2023-02-19T01:12:15;16.77;;;5.80;;
30613;SDS011;17381;51.690;5.270;2023-02-19T01:15:09;17.73;;;5.15;;
30613;SDS011;17381;51.690;5.270;2023-02-19T01:18:07;19.50;;;5.80;;
30613;SDS011;17381;51.690;5.270;2023-02-19T01:21:19;15.20;;;5.10;;
30613;SDS011;17381;51.690;5.270;2023-02-19T01:26:53;13.90;;;4.63;;
30613;SDS011;17381;51.690;5.270;2023-02-19T01:29:57;20.20;;;5.05;;
30613;SDS011;17381;51.690;5.270;2023-02-19T01:33:03;23.58;;;5.72;;
30613;SDS011;17381;51.690;5.270;2023-02-19T01:35:53;21.42;;;5.53;;
30613;SDS011;17381;51.690;5.270;2023-02-19T01:39:05;15.48;;;4.63;;
30613;SDS011;17381;51.690;5.270;2023-02-19T01:42:01;14.70;;;5.00;;
30613;SDS011;17381;51.690;5.270;2023-02-19T01:45:28;21.40;;;5.85;;
30613;SDS011;17381;51.690;5.270;2023-02-19T01:49:07;15.55;;;4.60;;
30613;SDS011;17381;51.690;5.270;2023-02-19T01:51:31;19.02;;;5.07;;
30613;SDS011;17381;51.690;5.270;2023-02-19T01:54:27;18.88;;;6.00;;
30613;SDS011;17381;51.690;5.270;2023-02-19T01:57:11;14.23;;;4.70;;
30613;SDS011;17381;51.690;5.270;2023-02-19T02:02:59;12.77;;;4.75;;
30613;SDS011;17381;51.690;5.270;2023-02-19T02:05:49;16.73;;;4.82;;
30613;SDS011;17381;51.690;5.270;2023-02-19T02:09:18;17.52;;;4.70;;
30613;SDS011;17381;51.690;5.270;2023-02-19T02:12:32;18.65;;;5.00;;
30613;SDS011;17381;51.690;5.270;2023-02-19T02:15:35;20.55;;;5.35;;
30613;SDS011;17381;51.690;5.270;2023-02-19T02:32:37;16.80;;;4.05;;
30613;SDS011;17381;51.690;5.270;2023-02-19T02:39:16;15.52;;;4.65;;
30613;SDS011;17381;51.690;5.270;2023-02-19T02:42:18;13.40;;;4.03;;
30613;SDS011;17381;51.690;5.270;2023-02-19T02:52:07;14.85;;;4.18;;
30613;SDS011;17381;51.690;5.270;2023-02-19T02:55:18;16.17;;;4.15;;
30613;SDS011;17381;51.690;5.270;2023-02-19T02:58:07;15.75;;;3.50;;
30613;SDS011;17381;51.690;5.270;2023-02-19T03:01:20;17.80;;;3.25;;
30613;SDS011;17381;51.690;5.270;2023-02-19T03:04:19;11.20;;;2.75;;
30613;SDS011;17381;51.690;5.270;2023-02-19T03:07:35;15.18;;;3.17;;
30613;SDS011;17381;51.690;5.270;2023-02-19T03:11:01;14.25;;;3.00;;
30613;SDS011;17381;51.690;5.270;2023-02-19T03:14:31;14.95;;;3.08;;
30613;SDS011;17381;51.690;5.270;2023-02-19T03:17:49;12.88;;;2.90;;
30613;SDS011;17381;51.690;5.270;2023-02-19T03:20:48;11.18;;;2.53;;
30613;SDS011;17381;51.690;5.270;2023-02-19T03:23:38;11.80;;;3.47;;
30613;SDS011;17381;51.690;5.270;2023-02-19T03:26:38;12.15;;;3.50;;
30613;SDS011;17381;51.690;5.270;2023-02-19T03:29:34;12.07;;;2.72;;
30613;SDS011;17381;51.690;5.270;2023-02-19T03:32:23;13.18;;;2.92;;
30613;SDS011;17381;51.690;5.270;2023-02-19T03:35:57;11.52;;;2.55;;
30613;SDS011;17381;51.690;5.270;2023-02-19T03:38:44;13.27;;;2.42;;
30613;SDS011;17381;51.690;5.270;2023-02-19T03:41:59;11.73;;;2.40;;
30613;SDS011;17381;51.690;5.270;2023-02-19T03:48:37;13.10;;;2.67;;
30613;SDS011;17381;51.690;5.270;2023-02-19T03:51:55;12.65;;;2.85;;
30613;SDS011;17381;51.690;5.270;2023-02-19T03:55:14;13.10;;;2.35;;
30613;SDS011;17381;51.690;5.270;2023-02-19T04:01:35;16.45;;;2.83;;
30613;SDS011;17381;51.690;5.270;2023-02-19T04:04:37;11.82;;;2.50;;
30613;SDS011;17381;51.690;5.270;2023-02-19T04:07:42;16.13;;;2.38;;
30613;SDS011;17381;51.690;5.270;2023-02-19T04:10:45;13.23;;;2.47;;
30613;SDS011;17381;51.690;5.270;2023-02-19T04:13:36;14.57;;;2.60;;
30613;SDS011;17381;51.690;5.270;2023-02-19T04:16:47;11.82;;;2.40;;
30613;SDS011;17381;51.690;5.270;2023-02-19T04:19:39;12.27;;;2.70;;
30613;SDS011;17381;51.690;5.270;2023-02-19T04:22:12;14.43;;;2.83;;
30613;SDS011;17381;51.690;5.270;2023-02-19T04:25:21;13.63;;;2.30;;
30613;SDS011;17381;51.690;5.270;2023-02-19T04:28:28;10.10;;;2.50;;
30613;SDS011;17381;51.690;5.270;2023-02-19T04:31:25;13.02;;;2.38;;
30613;SDS011;17381;51.690;5.270;2023-02-19T04:34:31;12.40;;;2.63;;
30613;SDS011;17381;51.690;5.270;2023-02-19T04:37:22;8.52;;;2.00;;
30613;SDS011;17381;51.690;5.270;2023-02-19T04:40:15;15.82;;;3.03;;
30613;SDS011;17381;51.690;5.270;2023-02-19T04:43:07;9.93;;;2.70;;
30613;SDS011;17381;51.690;5.270;2023-02-19T04:46:03;11.35;;;2.53;;
30613;SDS011;17381;51.690;5.270;2023-02-19T04:48:35;12.43;;;2.58;;
30613;SDS011;17381;51.690;5.270;2023-02-19T04:51:25;11.82;;;2.58;;
30613;SDS011;17381;51.690;5.270;2023-02-19T04:54:26;10.45;;;2.30;;
30613;SDS011;17381;51.690;5.270;2023-02-19T04:57:17;15.43;;;3.25;;
30613;SDS011;17381;51.690;5.270;2023-02-19T05:00:17;11.15;;;2.85;;
30613;SDS011;17381;51.690;5.270;2023-02-19T05:03:25;11.07;;;2.53;;
30613;SDS011;17381;51.690;5.270;2023-02-19T05:06:11;11.23;;;2.40;;
30613;SDS011;17381;51.690;5.270;2023-02-19T05:09:18;13.77;;;2.70;;
30613;SDS011;17381;51.690;5.270;2023-02-19T05:12:26;9.90;;;2.42;;
30613;SDS011;17381;51.690;5.270;2023-02-19T05:15:24;14.65;;;2.95;;
30613;SDS011;17381;51.690;5.270;2023-02-19T05:18:26;16.38;;;2.55;;
30613;SDS011;17381;51.690;5.270;2023-02-19T05:21:42;9.48;;;2.03;;
30613;SDS011;17381;51.690;5.270;2023-02-19T05:24:53;13.63;;;2.47;;
30613;SDS011;17381;51.690;5.270;2023-02-19T05:27:40;8.02;;;2.25;;
30613;SDS011;17381;51.690;5.270;2023-02-19T05:30:51;13.55;;;2.63;;
30613;SDS011;17381;51.690;5.270;2023-02-19T05:33:46;14.40;;;2.92;;
30613;SDS011;17381;51.690;5.270;2023-02-19T05:36:55;11.85;;;2.50;;
30613;SDS011;17381;51.690;5.270;2023-02-19T05:39:54;11.52;;;2.97;;
30613;SDS011;17381;51.690;5.270;2023-02-19T05:43:00;14.02;;;2.92;;
30613;SDS011;17381;51.690;5.270;2023-02-19T05:45:54;10.02;;;2.50;;
30613;SDS011;17381;51.690;5.270;2023-02-19T05:49:02;11.85;;;2.33;;
30613;SDS011;17381;51.690;5.270;2023-02-19T05:52:02;14.85;;;3.20;;
30613;SDS011;17381;51.690;5.270;2023-02-19T05:54:54;9.75;;;2.25;;
30613;SDS011;17381;51.690;5.270;2023-02-19T06:00:43;10.20;;;2.17;;
30613;SDS011;17381;51.690;5.270;2023-02-19T06:03:57;11.48;;;2.47;;
30613;SDS011;17381;51.690;5.270;2023-02-19T06:06:47;12.23;;;2.53;;
30613;SDS011;17381;51.690;5.270;2023-02-19T06:09:53;16.88;;;2.53;;
30613;SDS011;17381;51.690;5.270;2023-02-19T06:12:55;15.88;;;2.97;;
30613;SDS011;17381;51.690;5.270;2023-02-19T06:15:53;9.30;;;2.65;;
30613;SDS011;17381;51.690;5.270;2023-02-19T06:18:43;9.48;;;2.85;;
30613;SDS011;17381;51.690;5.270;2023-02-19T06:21:48;13.68;;;3.20;;
30613;SDS011;17381;51.690;5.270;2023-02-19T06:24:22;14.65;;;3.15;;
30613;SDS011;17381;51.690;5.270;2023-02-19T06:27:08;11.82;;;3.17;;
30613;SDS011;17381;51.690;5.270;2023-02-19T06:30:22;9.93;;;2.50;;
30613;SDS011;17381;51.690;5.270;2023-02-19T06:33:31;15.30;;;3.63;;
30613;SDS011;17381;51.690;5.270;2023-02-19T06:36:25;16.35;;;2.80;;
30613;SDS011;17381;51.690;5.270;2023-02-19T06:39:28;13.50;;;2.60;;
30613;SDS011;17381;51.690;5.270;2023-02-19T06:42:21;8.23;;;2.45;;
30613;SDS011;17381;51.690;5.270;2023-02-19T06:45:17;8.75;;;2.65;;
30613;SDS011;17381;51.690;5.270;2023-02-19T06:48:18;12.45;;;3.53;;
30613;SDS011;17381;51.690;5.270;2023-02-19T06:51:15;11.82;;;3.33;;
30613;SDS011;17381;51.690;5.270;2023-02-19T06:56:56;10.90;;;3.35;;
30613;SDS011;17381;51.690;5.270;2023-02-19T07:00:37;10.73;;;3.75;;
30613;SDS011;17381;51.690;5.270;2023-02-19T07:03:38;15.25;;;3.88;;
30613;SDS011;17381;51.690;5.270;2023-02-19T07:06:18;9.55;;;3.80;;
30613;SDS011;17381;51.690;5.270;2023-02-19T07:09:17;9.60;;;4.20;;
30613;SDS011;17381;51.690;5.270;2023-02-19T07:12:09;11.18;;;4.05;;
30613;SDS011;17381;51.690;5.270;2023-02-19T07:19:31;15.98;;;4.63;;
30613;SDS011;17381;51.690;5.270;2023-02-19T07:26:54;13.00;;;4.93;;
30613;SDS011;17381;51.690;5.270;2023-02-19T07:29:23;13.20;;;5.22;;
30613;SDS011;17381;51.690;5.270;2023-02-19T07:32:16;15.95;;;4.57;;
30613;SDS011;17381;51.690;5.270;2023-02-19T07:35:40;12.35;;;5.55;;
30613;SDS011;17381;51.690;5.270;2023-02-19T07:38:57;10.43;;;5.10;;
30613;SDS011;17381;51.690;5.270;2023-02-19T07:41:50;11.23;;;5.47;;
30613;SDS011;17381;51.690;5.270;2023-02-19T07:44:42;17.40;;;7.63;;
30613;SDS011;17381;51.690;5.270;2023-02-19T07:47:31;16.08;;;7.25;;
30613;SDS011;17381;51.690;5.270;2023-02-19T07:50:32;17.92;;;7.00;;
30613;SDS011;17381;51.690;5.270;2023-02-19T07:53:33;15.57;;;6.13;;
30613;SDS011;17381;51.690;5.270;2023-02-19T07:56:27;15.90;;;6.65;;
30613;SDS011;17381;51.690;5.270;2023-02-19T07:59:25;16.73;;;7.45;;
30613;SDS011;17381;51.690;5.270;2023-02-19T08:02:24;15.63;;;7.35;;
30613;SDS011;17381;51.690;5.270;2023-02-19T08:05:23;14.40;;;6.97;;
30613;SDS011;17381;51.690;5.270;2023-02-19T08:08:37;19.20;;;8.20;;
30613;SDS011;17381;51.690;5.270;2023-02-19T08:11:23;17.17;;;7.35;;
30613;SDS011;17381;51.690;5.270;2023-02-19T08:14:28;12.57;;;6.97;;
30613;SDS011;17381;51.690;5.270;2023-02-19T08:17:29;16.27;;;7.55;;
30613;SDS011;17381;51.690;5.270;2023-02-19T08:20:22;12.45;;;6.30;;
30613;SDS011;17381;51.690;5.270;2023-02-19T08:23:12;12.80;;;6.93;;
30613;SDS011;17381;51.690;5.270;2023-02-19T08:26:24;13.77;;;6.53;;
30613;SDS011;17381;51.690;5.270;2023-02-19T08:29:29;11.87;;;7.17;;
30613;SDS011;17381;51.690;5.270;2023-02-19T08:32:24;10.25;;;6.20;;
30613;SDS011;17381;51.690;5.270;2023-02-19T08:35:09;12.82;;;6.43;;
30613;SDS011;17381;51.690;5.270;2023-02-19T08:38:20;14.82;;;6.43;;
30613;SDS011;17381;51.690;5.270;2023-02-19T08:41:23;13.07;;;6.13;;
30613;SDS011;17381;51.690;5.270;2023-02-19T08:44:20;13.88;;;6.47;;
30613;SDS011;17381;51.690;5.270;2023-02-19T08:47:33;10.95;;;5.70;;
30613;SDS011;17381;51.690;5.270;2023-02-19T08:53:19;9.18;;;4.40;;
30613;SDS011;17381;51.690;5.270;2023-02-19T08:56:13;11.88;;;4.65;;
30613;SDS011;17381;51.690;5.270;2023-02-19T08:59:10;10.18;;;4.70;;
30613;SDS011;17381;51.690;5.270;2023-02-19T09:02:12;10.35;;;4.43;;
30613;SDS011;17381;51.690;5.270;2023-02-19T09:05:06;12.75;;;3.80;;
30613;SDS011;17381;51.690;5.270;2023-02-19T09:08:06;11.10;;;4.05;;
30613;SDS011;17381;51.690;5.270;2023-02-19T09:11:08;9.98;;;3.90;;
30613;SDS011;17381;51.690;5.270;2023-02-19T09:14:05;11.32;;;4.07;;
30613;SDS011;17381;51.690;5.270;2023-02-19T09:17:04;8.68;;;3.53;;
30613;SDS011;17381;51.690;5.270;2023-02-19T09:20:00;9.75;;;3.40;;
30613;SDS011;17381;51.690;5.270;2023-02-19T09:23:01;7.20;;;3.35;;
30613;SDS011;17381;51.690;5.270;2023-02-19T09:26:03;7.45;;;3.45;;
30613;SDS011;17381;51.690;5.270;2023-02-19T09:29:14;10.05;;;3.55;;
30613;SDS011;17381;51.690;5.270;2023-02-19T09:32:08;7.75;;;3.22;;
30613;SDS011;17381;51.690;5.270;2023-02-19T09:35:09;8.30;;;3.53;;
30613;SDS011;17381;51.690;5.270;2023-02-19T09:38:06;10.70;;;3.58;;
30613;SDS011;17381;51.690;5.270;2023-02-19T09:41:13;8.65;;;3.25;;
30613;SDS011;17381;51.690;5.270;2023-02-19T09:44:42;8.82;;;3.58;;
30613;SDS011;17381;51.690;5.270;2023-02-19T09:50:39;6.88;;;2.90;;
30613;SDS011;17381;51.690;5.270;2023-02-19T09:53:52;8.25;;;2.60;;
30613;SDS011;17381;51.690;5.270;2023-02-19T09:56:47;9.23;;;3.25;;
30613;SDS011;17381;51.690;5.270;2023-02-19T10:03:48;7.85;;;2.95;;
30613;SDS011;17381;51.690;5.270;2023-02-19T10:06:41;7.57;;;3.13;;
30613;SDS011;17381;51.690;5.270;2023-02-19T10:16:35;12.57;;;3.70;;
30613;SDS011;17381;51.690;5.270;2023-02-19T10:19:46;10.50;;;3.22;;
30613;SDS011;17381;51.690;5.270;2023-02-19T10:23:14;10.13;;;3.08;;
30613;SDS011;17381;51.690;5.270;2023-02-19T10:26:08;7.88;;;3.10;;
30613;SDS011;17381;51.690;5.270;2023-02-19T10:29:09;6.68;;;2.97;;
30613;SDS011;17381;51.690;5.270;2023-02-19T10:32:13;9.30;;;2.80;;
30613;SDS011;17381;51.690;5.270;2023-02-19T10:35:14;10.85;;;3.45;;
30613;SDS011;17381;51.690;5.270;2023-02-19T10:38:22;12.45;;;3.88;;
30613;SDS011;17381;51.690;5.270;2023-02-19T10:41:29;7.93;;;2.67;;
30613;SDS011;17381;51.690;5.270;2023-02-19T10:48:27;9.18;;;3.03;;
30613;SDS011;17381;51.690;5.270;2023-02-19T10:51:47;10.77;;;3.03;;
30613;SDS011;17381;51.690;5.270;2023-02-19T10:54:42;7.38;;;2.45;;
30613;SDS011;17381;51.690;5.270;2023-02-19T10:58:15;5.70;;;2.25;;
30613;SDS011;17381;51.690;5.270;2023-02-19T11:01:27;5.65;;;2.13;;
30613;SDS011;17381;51.690;5.270;2023-02-19T11:04:18;4.68;;;2.03;;
30613;SDS011;17381;51.690;5.270;2023-02-19T11:07:31;7.88;;;2.08;;
30613;SDS011;17381;51.690;5.270;2023-02-19T11:10:50;7.40;;;1.85;;
30613;SDS011;17381;51.690;5.270;2023-02-19T11:13:51;6.13;;;1.95;;
30613;SDS011;17381;51.690;5.270;2023-02-19T11:25:20;7.80;;;1.75;;
30613;SDS011;17381;51.690;5.270;2023-02-19T11:28:22;6.57;;;2.22;;
30613;SDS011;17381;51.690;5.270;2023-02-19T11:31:41;6.88;;;1.98;;
30613;SDS011;17381;51.690;5.270;2023-02-19T11:35:20;6.65;;;2.20;;
30613;SDS011;17381;51.690;5.270;2023-02-19T11:38:23;6.25;;;2.08;;
30613;SDS011;17381;51.690;5.270;2023-02-19T11:47:36;7.30;;;2.30;;
30613;SDS011;17381;51.690;5.270;2023-02-19T11:57:48;6.00;;;2.47;;
30613;SDS011;17381;51.690;5.270;2023-02-19T12:01:49;4.70;;;2.90;;
30613;SDS011;17381;51.690;5.270;2023-02-19T12:15:29;7.22;;;2.58;;
30613;SDS011;17381;51.690;5.270;2023-02-19T12:19:02;3.40;;;1.60;;
30613;SDS011;17381;51.690;5.270;2023-02-19T12:33:33;2.35;;;;;
30613;SDS011;17381;51.690;5.270;2023-02-19T12:44:06;2.38;;;0.88;;
30613;SDS011;17381;51.690;5.270;2023-02-19T12:47:12;4.95;;;1.23;;
30613;SDS011;17381;51.690;5.270;2023-02-19T12:53:41;2.33;;;0.80;;
30613;SDS011;17381;51.690;5.270;2023-02-19T12:57:14;5.28;;;1.00;;
30613;SDS011;17381;51.690;5.270;2023-02-19T13:00:45;5.90;;;1.15;;
30613;SDS011;17381;51.690;5.270;2023-02-19T13:07:03;3.45;;;0.70;;
30613;SDS011;17381;51.690;5.270;2023-02-19T13:10:29;4.85;;;1.05;;
30613;SDS011;17381;51.690;5.270;2023-02-19T13:17:44;6.28;;;1.52;;
30613;SDS011;17381;51.690;5.270;2023-02-19T13:20:46;6.00;;;1.85;;
30613;SDS011;17381;51.690;5.270;2023-02-19T13:23:47;5.47;;;2.58;;
30613;SDS011;17381;51.690;5.270;2023-02-19T13:30:09;5.50;;;2.55;;
30613;SDS011;17381;51.690;5.270;2023-02-19T13:36:27;3.55;;;1.73;;
30613;SDS011;17381;51.690;5.270;2023-02-19T13:39:27;4.70;;;1.33;;
30613;SDS011;17381;51.690;5.270;2023-02-19T13:45:40;2.50;;;1.02;;
30613;SDS011;17381;51.690;5.270;2023-02-19T13:48:34;3.45;;;1.73;;
30613;SDS011;17381;51.690;5.270;2023-02-19T14:08:51;6.35;;;2.63;;
30613;SDS011;17381;51.690;5.270;2023-02-19T14:19:03;5.32;;;2.28;;
30613;SDS011;17381;51.690;5.270;2023-02-19T14:21:33;8.20;;;2.58;;
30613;SDS011;17381;51.690;5.270;2023-02-19T14:24:18;8.32;;;2.97;;
30613;SDS011;17381;51.690;5.270;2023-02-19T14:27:07;8.95;;;2.72;;
30613;SDS011;17381;51.690;5.270;2023-02-19T14:30:00;5.07;;;2.40;;
30613;SDS011;17381;51.690;5.270;2023-02-19T14:33:02;5.22;;;2.08;;
30613;SDS011;17381;51.690;5.270;2023-02-19T14:36:00;8.07;;;2.72;;
30613;SDS011;17381;51.690;5.270;2023-02-19T14:38:49;10.70;;;3.15;;
30613;SDS011;17381;51.690;5.270;2023-02-19T14:45:33;13.63;;;2.92;;
30613;SDS011;17381;51.690;5.270;2023-02-19T14:48:40;5.15;;;2.47;;
30613;SDS011;17381;51.690;5.270;2023-02-19T14:51:38;4.18;;;1.63;;
30613;SDS011;17381;51.690;5.270;2023-02-19T14:54:42;5.72;;;2.13;;
30613;SDS011;17381;51.690;5.270;2023-02-19T14:57:54;4.82;;;1.90;;
30613;SDS011;17381;51.690;5.270;2023-02-19T15:00:58;6.43;;;2.28;;
30613;SDS011;17381;51.690;5.270;2023-02-19T15:03:47;5.13;;;1.85;;
30613;SDS011;17381;51.690;5.270;2023-02-19T15:06:50;5.55;;;2.28;;
30613;SDS011;17381;51.690;5.270;2023-02-19T15:10:06;8.15;;;2.70;;
30613;SDS011;17381;51.690;5.270;2023-02-19T15:12:52;5.20;;;2.75;;
30613;SDS011;17381;51.690;5.270;2023-02-19T15:15:43;3.90;;;2.30;;
30613;SDS011;17381;51.690;5.270;2023-02-19T15:18:51;5.25;;;3.13;;
30613;SDS011;17381;51.690;5.270;2023-02-19T15:21:57;5.07;;;2.88;;
30613;SDS011;17381;51.690;5.270;2023-02-19T15:25:01;5.28;;;2.72;;
30613;SDS011;17381;51.690;5.270;2023-02-19T15:27:53;4.18;;;2.20;;
30613;SDS011;17381;51.690;5.270;2023-02-19T15:31:09;6.75;;;3.08;;
30613;SDS011;17381;51.690;5.270;2023-02-19T15:34:13;3.33;;;2.00;;
30613;SDS011;17381;51.690;5.270;2023-02-19T15:37:02;4.40;;;2.30;;
30613;SDS011;17381;51.690;5.270;2023-02-19T15:39:47;4.18;;;2.30;;
30613;SDS011;17381;51.690;5.270;2023-02-19T15:42:48;4.05;;;2.03;;
30613;SDS011;17381;51.690;5.270;2023-02-19T15:46:02;4.38;;;2.10;;
30613;SDS011;17381;51.690;5.270;2023-02-19T15:51:58;10.25;;;5.88;;
30613;SDS011;17381;51.690;5.270;2023-02-19T15:55:22;8.77;;;5.50;;
30613;SDS011;17381;51.690;5.270;2023-02-19T15:58:19;9.13;;;5.35;;
30613;SDS011;17381;51.690;5.270;2023-02-19T16:01:27;8.43;;;4.70;;
30613;SDS011;17381;51.690;5.270;2023-02-19T16:04:26;6.32;;;3.28;;
30613;SDS011;17381;51.690;5.270;2023-02-19T16:07:28;5.75;;;3.45;;
30613;SDS011;17381;51.690;5.270;2023-02-19T16:10:25;8.45;;;4.20;;
30613;SDS011;17381;51.690;5.270;2023-02-19T16:13:35;7.10;;;4.55;;
30613;SDS011;17381;51.690;5.270;2023-02-19T16:16:26;8.27;;;4.93;;
30613;SDS011;17381;51.690;5.270;2023-02-19T16:19:41;8.85;;;5.43;;
30613;SDS011;17381;51.690;5.270;2023-02-19T16:22:46;7.57;;;4.68;;
30613;SDS011;17381;51.690;5.270;2023-02-19T16:25:46;6.55;;;3.45;;
30613;SDS011;17381;51.690;5.270;2023-02-19T16:28:56;8.98;;;6.00;;
30613;SDS011;17381;51.690;5.270;2023-02-19T16:31:45;6.53;;;4.13;;
30613;SDS011;17381;51.690;5.270;2023-02-19T16:34:50;8.00;;;5.78;;
30613;SDS011;17381;51.690;5.270;2023-02-19T16:37:55;44.90;;;29.50;;
30613;SDS011;17381;51.690;5.270;2023-02-19T16:55:29;10.70;;;5.35;;
30613;SDS011;17381;51.690;5.270;2023-02-19T17:41:27;9.85;;;5.45;;
30613;SDS011;17381;51.690;5.270;2023-02-19T17:44:10;6.93;;;3.78;;
30613;SDS011;17381;51.690;5.270;2023-02-19T17:49:47;4.80;;;3.25;;
30613;SDS011;17381;51.690;5.270;2023-02-19T17:52:36;5.00;;;3.63;;
30613;SDS011;17381;51.690;5.270;2023-02-19T17:55:29;5.53;;;4.03;;
30613;SDS011;17381;51.690;5.270;2023-02-19T17:58:12;5.70;;;4.10;;
30613;SDS011;17381;51.690;5.270;2023-02-19T18:01:23;3.97;;;2.95;;
30613;SDS011;17381;51.690;5.270;2023-02-19T18:04:04;5.70;;;3.35;;
30613;SDS011;17381;51.690;5.270;2023-02-19T18:07:03;3.15;;;2.13;;
30613;SDS011;17381;51.690;5.270;2023-02-19T18:09:51;4.75;;;2.03;;
30613;SDS011;17381;51.690;5.270;2023-02-19T18:12:50;3.97;;;2.10;;
30613;SDS011;17381;51.690;5.270;2023-02-19T18:22:59;3.70;;;1.95;;
30613;SDS011;17381;51.690;5.270;2023-02-19T18:26:00;2.80;;;1.60;;
30613;SDS011;17381;51.690;5.270;2023-02-19T18:28:53;4.28;;;1.15;;
30613;SDS011;17381;51.690;5.270;2023-02-19T18:32:12;4.15;;;1.92;;
30613;SDS011;17381;51.690;5.270;2023-02-19T18:35:03;5.72;;;2.42;;
30613;SDS011;17381;51.690;5.270;2023-02-19T18:37:50;3.67;;;1.70;;
30613;SDS011;17381;51.690;5.270;2023-02-19T18:40:43;6.45;;;3.20;;
30613;SDS011;17381;51.690;5.270;2023-02-19T18:43:30;5.07;;;2.70;;
30613;SDS011;17381;51.690;5.270;2023-02-19T18:46:01;5.18;;;2.30;;
30613;SDS011;17381;51.690;5.270;2023-02-19T18:48:48;5.82;;;3.00;;
30613;SDS011;17381;51.690;5.270;2023-02-19T18:58:47;3.67;;;1.50;;
30613;SDS011;17381;51.690;5.270;2023-02-19T19:12:33;5.40;;;2.63;;
30613;SDS011;17381;51.690;5.270;2023-02-19T19:15:24;5.60;;;2.70;;
30613;SDS011;17381;51.690;5.270;2023-02-19T19:18:08;3.67;;;2.20;;
30613;SDS011;17381;51.690;5.270;2023-02-19T19:20:50;5.93;;;2.58;;
30613;SDS011;17381;51.690;5.270;2023-02-19T19:23:37;4.25;;;2.13;;
30613;SDS011;17381;51.690;5.270;2023-02-19T19:26:33;4.07;;;1.88;;
30613;SDS011;17381;51.690;5.270;2023-02-19T19:29:41;4.88;;;2.13;;
30613;SDS011;17381;51.690;5.270;2023-02-19T19:33:09;3.90;;;2.07;;
30613;SDS011;17381;51.690;5.270;2023-02-19T19:57:42;3.30;;;1.23;;
30613;SDS011;17381;51.690;5.270;2023-02-19T20:00:23;2.95;;;1.10;;
30613;SDS011;17381;51.690;5.270;2023-02-19T20:03:35;2.03;;;1.00;;
30613;SDS011;17381;51.690;5.270;2023-02-19T20:13:51;3.55;;;1.00;;
30613;SDS011;17381;51.690;5.270;2023-02-19T20:17:27;2.65;;;1.20;;
30613;SDS011;17381;51.690;5.270;2023-02-19T20:20:12;4.07;;;0.88;;
30613;SDS011;17381;51.690;5.270;2023-02-19T20:22:49;2.35;;;1.05;;
30613;SDS011;17381;51.690;5.270;2023-02-19T20:26:07;2.50;;;0.90;;
30613;SDS011;17381;51.690;5.270;2023-02-19T20:28:50;6.45;;;1.38;;
30613;SDS011;17381;51.690;5.270;2023-02-19T20:54:29;4.22;;;1.40;;
30613;SDS011;17381;51.690;5.270;2023-02-19T20:58:15;3.00;;;1.60;;
30613;SDS011;17381;51.690;5.270;2023-02-19T21:28:30;6.68;;;3.42;;
30613;SDS011;17381;51.690;5.270;2023-02-19T21:35:03;7.80;;;3.58;;
30613;SDS011;17381;51.690;5.270;2023-02-19T21:57:21;7.72;;;3.97;;
30613;SDS011;17381;51.690;5.270;2023-02-19T22:04:20;6.20;;;3.30;;
30613;SDS011;17381;51.690;5.270;2023-02-19T22:07:15;7.60;;;3.78;;
30613;SDS011;17381;51.690;5.270;2023-02-19T22:14:09;8.15;;;3.85;;
30613;SDS011;17381;51.690;5.270;2023-02-19T22:28:08;10.23;;;5.85;;
30613;SDS011;17381;51.690;5.270;2023-02-19T22:43:12;12.60;;;7.00;;
30613;SDS011;17381;51.690;5.270;2023-02-19T22:50:20;15.32;;;8.68;;
30613;SDS011;17381;51.690;5.270;2023-02-19T23:03:41;15.43;;;9.00;;
30613;SDS011;17381;51.690;5.270;2023-02-19T23:06:49;14.77;;;8.45;;
30613;SDS011;17381;51.690;5.270;2023-02-19T23:09:31;15.07;;;8.40;;
30613;SDS011;17381;51.690;5.270;2023-02-19T23:12:35;15.02;;;9.68;;
30613;SDS011;17381;51.690;5.270;2023-02-19T23:15:23;15.25;;;8.75;;
30613;SDS011;17381;51.690;5.270;2023-02-19T23:18:32;15.95;;;8.98;;
30613;SDS011;17381;51.690;5.270;2023-02-19T23:25:29;15.55;;;8.40;;
30613;SDS011;17381;51.690;5.270;2023-02-19T23:56:06;12.15;;;7.20;;
30613;SDS011;17381;51.690;5.270;2023-02-19T23:59:46;14.13;;;6.45;;
